createdAt,value
2023-04-29T00:02:16.922Z,23.75
2023-04-29T00:04:45.376Z,23.58
2023-04-29T00:07:16.055Z,25.45
2023-04-29T00:09:46.069Z,24.73
2023-04-29T00:12:14.529Z,23.88
2023-04-29T00:14:43.978Z,24.60
2023-04-29T00:17:12.556Z,25.63
2023-04-29T00:19:41.354Z,24.98
2023-04-29T00:22:09.698Z,26.85
2023-04-29T00:24:38.218Z,25.90
2023-04-29T00:27:08.275Z,26.30
2023-04-29T00:29:36.960Z,25.95
2023-04-29T00:32:05.908Z,25.63
2023-04-29T00:34:34.334Z,25.90
2023-04-29T00:37:03.001Z,24.70
2023-04-29T00:39:31.394Z,23.02
2023-04-29T00:42:00.658Z,24.88
2023-04-29T00:44:30.712Z,25.75
2023-04-29T00:46:59.414Z,24.58
2023-04-29T00:49:28.320Z,24.48
2023-04-29T00:51:58.837Z,23.17
2023-04-29T00:54:27.383Z,22.33
2023-04-29T00:56:57.063Z,23.10
2023-04-29T00:59:32.082Z,21.10
2023-04-29T01:02:06.880Z,19.05
2023-04-29T01:04:35.449Z,19.10
2023-04-29T01:07:14.360Z,17.25
2023-04-29T01:09:55.378Z,17.30
2023-04-29T01:12:34.657Z,17.30
2023-04-29T01:15:11.036Z,16.48
2023-04-29T01:17:46.801Z,17.60
2023-04-29T01:20:16.716Z,17.67
2023-04-29T01:22:45.299Z,16.90
2023-04-29T01:25:15.085Z,16.80
2023-04-29T01:27:54.299Z,17.55
2023-04-29T01:30:35.074Z,16.80
2023-04-29T01:33:16.060Z,17.30
2023-04-29T01:35:59.132Z,17.33
2023-04-29T01:38:43.680Z,16.25
2023-04-29T01:41:19.199Z,17.23
2023-04-29T01:43:52.279Z,17.77
2023-04-29T01:46:20.838Z,18.52
2023-04-29T01:48:49.197Z,17.83
2023-04-29T01:51:17.723Z,18.95
2023-04-29T01:53:46.166Z,19.80
2023-04-29T01:56:16.153Z,19.73
2023-04-29T01:58:44.760Z,20.00
2023-04-29T02:01:14.419Z,20.67
2023-04-29T02:03:43.261Z,20.48
2023-04-29T02:06:12.157Z,20.35
2023-04-29T02:08:42.155Z,21.50
2023-04-29T02:11:10.683Z,20.50
2023-04-29T02:13:41.491Z,21.30
2023-04-29T02:16:10.828Z,20.98
2023-04-29T02:18:40.168Z,21.73
2023-04-29T02:21:08.884Z,21.33
2023-04-29T02:23:37.461Z,20.40
2023-04-29T02:26:07.402Z,21.75
2023-04-29T02:28:37.999Z,21.08
2023-04-29T02:31:08.235Z,20.92
2023-04-29T02:33:36.636Z,21.02
2023-04-29T02:36:06.987Z,22.17
2023-04-29T02:38:36.746Z,22.45
2023-04-29T02:41:05.176Z,22.65
2023-04-29T02:43:33.653Z,22.55
2023-04-29T02:46:02.080Z,23.17
2023-04-29T02:48:31.862Z,22.98
2023-04-29T02:51:00.297Z,22.52
2023-04-29T02:53:28.737Z,22.10
2023-04-29T02:55:57.817Z,23.13
2023-04-29T02:58:26.421Z,22.67
2023-04-29T03:00:55.064Z,23.90
2023-04-29T03:03:24.451Z,24.92
2023-04-29T03:05:56.166Z,24.20
2023-04-29T03:08:25.176Z,24.30
2023-04-29T03:10:53.858Z,24.20
2023-04-29T03:13:22.577Z,23.23
2023-04-29T03:15:51.137Z,23.58
2023-04-29T03:18:19.638Z,24.02
2023-04-29T03:20:48.050Z,24.10
2023-04-29T03:23:18.035Z,21.95
2023-04-29T03:25:46.693Z,21.17
2023-04-29T03:28:15.097Z,20.58
2023-04-29T03:30:43.546Z,19.48
2023-04-29T03:33:12.042Z,19.48
2023-04-29T03:35:40.640Z,18.27
2023-04-29T03:38:09.376Z,18.10
2023-04-29T03:40:40.070Z,18.63
2023-04-29T03:43:09.399Z,17.15
2023-04-29T03:45:37.984Z,16.30
2023-04-29T03:48:08.129Z,16.45
2023-04-29T03:50:37.863Z,16.33
2023-04-29T03:53:06.971Z,15.55
2023-04-29T03:55:35.517Z,15.60
2023-04-29T03:58:05.571Z,16.00
2023-04-29T04:00:34.044Z,15.40
2023-04-29T04:03:05.257Z,16.80
2023-04-29T04:05:37.377Z,15.73
2023-04-29T04:08:06.421Z,17.40
2023-04-29T04:10:34.780Z,15.50
2023-04-29T04:13:04.719Z,16.50
2023-04-29T04:15:33.419Z,18.00
2023-04-29T04:18:02.210Z,17.20
2023-04-29T04:20:30.888Z,18.95
2023-04-29T04:23:00.517Z,18.65
2023-04-29T04:25:29.302Z,18.83
2023-04-29T04:27:58.166Z,18.85
2023-04-29T04:30:28.074Z,20.48
2023-04-29T04:32:58.890Z,20.98
2023-04-29T04:35:27.396Z,19.73
2023-04-29T04:37:55.874Z,20.77
2023-04-29T04:40:24.358Z,21.27
2023-04-29T04:42:55.142Z,21.70
2023-04-29T04:45:23.670Z,20.70
2023-04-29T04:47:54.166Z,20.67
2023-04-29T04:50:22.687Z,19.25
2023-04-29T04:52:51.091Z,19.80
2023-04-29T04:55:19.448Z,19.05
2023-04-29T04:57:48.330Z,18.88
2023-04-29T05:00:17.429Z,18.48
2023-04-29T05:02:56.524Z,19.60
2023-04-29T05:05:26.495Z,19.10
2023-04-29T05:08:01.150Z,18.75
2023-04-29T05:10:29.380Z,18.75
2023-04-29T05:12:58.282Z,18.38
2023-04-29T05:15:27.483Z,18.67
2023-04-29T05:17:57.604Z,19.30
2023-04-29T05:20:27.780Z,18.88
2023-04-29T05:22:56.312Z,18.58
2023-04-29T05:25:24.578Z,19.00
2023-04-29T05:27:53.534Z,16.77
2023-04-29T05:30:23.175Z,16.70
2023-04-29T05:32:53.759Z,17.60
2023-04-29T05:35:26.937Z,16.65
2023-04-29T05:38:00.221Z,16.95
2023-04-29T05:40:28.698Z,15.38
2023-04-29T05:42:57.077Z,15.45
2023-04-29T05:45:28.494Z,16.50
2023-04-29T05:48:18.856Z,16.17
2023-04-29T05:50:48.230Z,15.65
2023-04-29T05:53:17.931Z,16.27
2023-04-29T05:55:48.685Z,15.05
2023-04-29T05:58:18.386Z,16.33
2023-04-29T06:00:49.333Z,15.95
2023-04-29T06:03:18.432Z,15.50
2023-04-29T06:05:47.636Z,16.17
2023-04-29T06:08:20.132Z,16.15
2023-04-29T06:10:48.560Z,16.17
2023-04-29T06:13:17.530Z,15.38
2023-04-29T06:15:46.336Z,15.20
2023-04-29T06:18:14.851Z,15.10
2023-04-29T06:20:43.749Z,15.73
2023-04-29T06:23:12.593Z,15.05
2023-04-29T06:25:44.688Z,14.68
2023-04-29T06:28:13.147Z,15.30
2023-04-29T06:30:41.834Z,14.55
2023-04-29T06:33:10.154Z,14.45
2023-04-29T06:35:41.673Z,13.85
2023-04-29T06:38:10.260Z,14.27
2023-04-29T06:40:40.878Z,14.93
2023-04-29T06:43:10.693Z,15.52
2023-04-29T06:45:38.844Z,15.50
2023-04-29T06:48:07.493Z,15.65
2023-04-29T06:50:36.417Z,15.07
2023-04-29T06:53:04.672Z,14.57
2023-04-29T06:55:39.057Z,14.38
2023-04-29T06:58:07.305Z,15.00
2023-04-29T07:00:36.825Z,14.38
2023-04-29T07:03:05.140Z,14.57
2023-04-29T07:05:33.803Z,15.23
2023-04-29T07:08:01.936Z,13.32
2023-04-29T07:10:30.019Z,13.30
2023-04-29T07:13:00.215Z,13.05
2023-04-29T07:15:29.910Z,14.02
2023-04-29T07:18:00.518Z,12.45
2023-04-29T07:20:28.693Z,12.02
2023-04-29T07:22:56.754Z,12.48
2023-04-29T07:25:24.903Z,10.45
2023-04-29T07:27:52.947Z,10.10
2023-04-29T07:30:20.956Z,10.35
2023-04-29T07:32:48.980Z,10.88
2023-04-29T07:35:18.569Z,9.68
2023-04-29T07:37:46.670Z,9.82
2023-04-29T07:40:14.685Z,9.23
2023-04-29T07:42:42.806Z,11.02
2023-04-29T07:45:11.671Z,10.02
2023-04-29T07:47:39.927Z,9.68
2023-04-29T07:50:11.675Z,9.02
2023-04-29T07:52:41.400Z,8.90
2023-04-29T07:55:10.770Z,8.25
2023-04-29T07:57:38.890Z,7.90
2023-04-29T08:00:10.987Z,8.05
2023-04-29T08:02:42.706Z,8.77
2023-04-29T08:05:11.668Z,8.20
2023-04-29T08:07:41.423Z,7.72
2023-04-29T08:10:11.197Z,8.90
2023-04-29T08:12:39.460Z,8.68
2023-04-29T08:15:09.915Z,8.02
2023-04-29T08:17:38.371Z,8.07
2023-04-29T08:20:08.491Z,8.15
2023-04-29T08:22:36.603Z,8.43
2023-04-29T08:25:07.616Z,8.63
2023-04-29T08:27:36.110Z,8.60
2023-04-29T08:30:04.909Z,8.75
2023-04-29T08:32:34.244Z,8.07
2023-04-29T08:35:05.668Z,8.20
2023-04-29T08:37:33.898Z,8.07
2023-04-29T08:40:02.126Z,8.90
2023-04-29T08:42:36.288Z,8.55
2023-04-29T08:45:06.211Z,8.60
2023-04-29T08:47:35.386Z,8.75
2023-04-29T08:50:05.877Z,9.45
2023-04-29T08:52:34.622Z,9.05
2023-04-29T08:55:03.633Z,9.38
2023-04-29T08:57:39.485Z,9.32
2023-04-29T09:00:10.846Z,8.82
2023-04-29T09:02:46.078Z,9.30
2023-04-29T09:05:14.636Z,8.93
2023-04-29T09:07:43.729Z,8.95
2023-04-29T09:10:13.045Z,9.30
2023-04-29T09:12:42.622Z,8.65
2023-04-29T09:15:11.912Z,9.20
2023-04-29T09:17:42.584Z,9.25
2023-04-29T09:20:32.792Z,7.80
2023-04-29T09:23:03.593Z,8.25
2023-04-29T09:25:33.538Z,8.82
2023-04-29T09:28:17.705Z,7.28
2023-04-29T09:30:50.608Z,8.00
2023-04-29T09:33:18.893Z,8.30
2023-04-29T09:35:48.715Z,7.55
2023-04-29T09:38:17.640Z,7.60
2023-04-29T09:40:57.629Z,7.82
2023-04-29T09:43:28.431Z,8.32
2023-04-29T09:45:57.273Z,7.32
2023-04-29T09:48:33.656Z,7.50
2023-04-29T09:51:04.095Z,7.97
2023-04-29T09:53:33.296Z,8.48
2023-04-29T09:56:03.816Z,8.30
2023-04-29T09:58:37.680Z,8.55
2023-04-29T10:01:08.206Z,8.32
2023-04-29T10:03:38.630Z,7.85
2023-04-29T10:06:08.696Z,8.40
2023-04-29T10:08:36.985Z,7.95
2023-04-29T10:11:06.266Z,8.35
2023-04-29T10:13:38.462Z,8.70
2023-04-29T10:16:21.350Z,8.07
2023-04-29T10:18:57.556Z,7.95
2023-04-29T10:21:32.287Z,8.50
2023-04-29T10:24:06.830Z,8.20
2023-04-29T10:26:40.230Z,8.03
2023-04-29T10:29:10.834Z,9.40
2023-04-29T10:31:41.110Z,8.15
2023-04-29T10:34:09.645Z,7.90
2023-04-29T10:36:39.330Z,8.23
2023-04-29T10:39:13.765Z,8.25
2023-04-29T10:41:47.098Z,7.75
2023-04-29T10:44:19.878Z,7.55
2023-04-29T10:47:28.490Z,7.55
2023-04-29T10:50:08.162Z,7.03
2023-04-29T10:52:55.984Z,7.90
2023-04-29T10:55:26.361Z,8.18
2023-04-29T10:57:57.188Z,7.50
2023-04-29T11:00:29.114Z,7.57
2023-04-29T11:02:58.386Z,7.05
2023-04-29T11:05:33.075Z,7.45
2023-04-29T11:08:13.072Z,6.63
2023-04-29T11:10:45.295Z,7.15
2023-04-29T11:13:26.483Z,6.60
2023-04-29T11:16:12.974Z,6.90
2023-04-29T11:19:06.650Z,7.47
2023-04-29T11:21:37.187Z,7.18
2023-04-29T11:24:09.176Z,7.20
2023-04-29T11:26:40.156Z,6.78
2023-04-29T11:29:16.178Z,7.10
2023-04-29T11:31:47.642Z,6.50
2023-04-29T11:34:18.194Z,7.13
2023-04-29T11:36:47.666Z,6.80
2023-04-29T11:39:20.199Z,6.45
2023-04-29T11:41:49.669Z,6.72
2023-04-29T11:44:23.981Z,6.13
2023-04-29T11:46:56.914Z,6.20
2023-04-29T11:49:32.454Z,6.18
2023-04-29T11:52:01.248Z,6.80
2023-04-29T11:54:30.581Z,6.65
2023-04-29T11:57:00.181Z,6.78
2023-04-29T11:59:29.550Z,6.70
2023-04-29T12:02:00.700Z,6.32
2023-04-29T12:04:29.229Z,6.82
2023-04-29T12:06:59.878Z,7.00
2023-04-29T12:09:28.400Z,6.47
2023-04-29T12:11:57.065Z,6.32
2023-04-29T12:14:25.996Z,6.70
2023-04-29T12:16:56.084Z,6.80
2023-04-29T12:19:27.154Z,6.60
2023-04-29T12:21:55.518Z,7.00
2023-04-29T12:24:24.199Z,7.03
2023-04-29T12:26:53.928Z,6.78
2023-04-29T12:29:26.198Z,6.63
2023-04-29T12:31:54.620Z,6.82
2023-04-29T12:34:29.498Z,6.13
2023-04-29T12:36:59.008Z,7.07
2023-04-29T12:39:29.061Z,5.82
2023-04-29T12:42:00.400Z,6.13
2023-04-29T12:44:36.503Z,6.93
2023-04-29T12:47:10.958Z,6.90
2023-04-29T12:49:44.054Z,7.03
2023-04-29T12:52:13.024Z,5.68
2023-04-29T12:54:43.568Z,6.03
2023-04-29T12:57:14.427Z,6.10
2023-04-29T12:59:44.003Z,7.07
2023-04-29T13:02:12.455Z,7.20
2023-04-29T13:04:50.727Z,5.75
2023-04-29T13:07:19.396Z,5.90
2023-04-29T13:09:47.715Z,6.72
2023-04-29T13:12:16.898Z,5.18
2023-04-29T13:14:45.775Z,5.20
2023-04-29T13:17:14.894Z,5.18
2023-04-29T13:19:51.587Z,4.57
2023-04-29T13:22:20.730Z,4.43
2023-04-29T13:24:49.313Z,5.20
2023-04-29T13:27:17.780Z,4.57
2023-04-29T13:29:46.041Z,5.30
2023-04-29T13:32:14.329Z,4.80
2023-04-29T13:34:45.151Z,4.13
2023-04-29T13:37:13.662Z,4.28
2023-04-29T13:39:45.671Z,4.43
2023-04-29T13:42:15.526Z,4.90
2023-04-29T13:44:52.200Z,4.47
2023-04-29T13:47:25.962Z,4.65
2023-04-29T13:55:44.014Z,4.30
2023-04-29T13:58:37.207Z,3.78
2023-04-29T14:01:05.962Z,3.65
2023-04-29T14:03:28.497Z,4.60
2023-04-29T14:05:59.239Z,4.20
2023-04-29T14:08:27.651Z,4.18
2023-04-29T14:10:55.974Z,3.05
2023-04-29T14:13:24.759Z,3.33
2023-04-29T14:15:54.412Z,3.05
2023-04-29T14:18:22.923Z,2.95
2023-04-29T14:20:51.304Z,2.75
2023-04-29T14:23:21.676Z,2.70
2023-04-29T14:25:50.032Z,2.60
2023-04-29T14:28:18.324Z,2.35
2023-04-29T14:30:47.091Z,1.80
2023-04-29T14:33:15.554Z,1.88
2023-04-29T14:35:43.870Z,2.10
2023-04-29T14:38:12.123Z,1.90
2023-04-29T14:40:41.847Z,2.00
2023-04-29T14:43:10.165Z,2.30
2023-04-29T14:45:38.440Z,1.90
2023-04-29T14:48:07.975Z,1.90
2023-04-29T14:50:36.638Z,1.20
2023-04-29T14:53:04.994Z,1.10
2023-04-29T14:55:34.901Z,1.25
2023-04-29T14:58:05.086Z,1.30
2023-04-29T15:00:33.697Z,1.58
2023-04-29T15:03:03.678Z,1.50
2023-04-29T15:05:32.592Z,1.50
2023-04-29T15:08:02.320Z,1.40
2023-04-29T15:10:30.965Z,1.50
2023-04-29T15:12:59.319Z,1.50
2023-04-29T15:15:29.969Z,1.73
2023-04-29T15:17:58.663Z,1.45
2023-04-29T15:20:27.545Z,1.45
2023-04-29T15:22:55.962Z,1.50
2023-04-29T15:25:26.599Z,1.30
2023-04-29T15:27:56.042Z,1.08
2023-04-29T15:30:25.056Z,1.27
2023-04-29T15:32:57.610Z,1.13
2023-04-29T15:35:26.220Z,0.98
2023-04-29T15:37:54.888Z,1.10
2023-04-29T15:40:23.536Z,1.05
2023-04-29T15:42:51.894Z,0.90
2023-04-29T15:45:20.305Z,1.20
2023-04-29T15:47:48.804Z,1.23
2023-04-29T15:50:18.479Z,1.00
2023-04-29T15:52:47.152Z,1.05
2023-04-29T15:55:16.684Z,1.30
2023-04-29T15:57:45.148Z,1.10
2023-04-29T16:00:14.560Z,1.20
2023-04-29T16:02:43.507Z,0.82
2023-04-29T16:05:12.029Z,0.90
2023-04-29T16:07:42.004Z,1.10
2023-04-29T16:10:11.889Z,0.90
2023-04-29T16:12:40.125Z,1.27
2023-04-29T16:15:10.550Z,1.25
2023-04-29T16:17:38.879Z,1.40
2023-04-29T16:20:11.706Z,1.48
2023-04-29T16:22:41.561Z,1.88
2023-04-29T16:25:11.437Z,2.00
2023-04-29T16:27:41.048Z,1.30
2023-04-29T16:30:11.152Z,1.40
2023-04-29T16:32:41.485Z,1.40
2023-04-29T16:35:11.312Z,1.50
2023-04-29T16:37:40.956Z,1.95
2023-04-29T16:40:11.385Z,1.63
2023-04-29T16:42:40.273Z,1.77
2023-04-29T16:45:12.435Z,2.05
2023-04-29T16:47:41.451Z,1.90
2023-04-29T16:50:11.567Z,2.00
2023-04-29T16:52:41.474Z,1.60
2023-04-29T16:55:12.019Z,1.70
2023-04-29T16:57:40.537Z,1.88
2023-04-29T17:00:12.231Z,1.77
2023-04-29T17:02:43.351Z,1.70
2023-04-29T17:05:12.065Z,1.55
2023-04-29T17:07:42.454Z,1.63
2023-04-29T17:10:11.593Z,2.17
2023-04-29T17:12:40.863Z,2.05
2023-04-29T17:15:10.545Z,2.08
2023-04-29T17:17:40.078Z,1.92
2023-04-29T17:20:10.419Z,1.80
2023-04-29T17:22:38.722Z,1.92
2023-04-29T17:25:10.423Z,2.28
2023-04-29T17:27:38.980Z,2.20
2023-04-29T17:30:09.544Z,2.30
2023-04-29T17:32:39.357Z,2.33
2023-04-29T17:35:09.810Z,2.50
2023-04-29T17:37:38.244Z,2.70
2023-04-29T17:40:10.762Z,3.38
2023-04-29T17:42:39.186Z,3.53
2023-04-29T17:45:11.653Z,3.15
2023-04-29T17:47:41.477Z,3.13
2023-04-29T17:50:15.134Z,3.10
2023-04-29T17:52:44.095Z,3.28
2023-04-29T17:55:13.731Z,3.00
2023-04-29T17:57:42.246Z,3.67
2023-04-29T18:00:12.890Z,3.40
2023-04-29T18:02:41.351Z,3.33
2023-04-29T18:05:10.309Z,3.50
2023-04-29T18:07:39.080Z,3.90
2023-04-29T18:10:09.618Z,3.90
2023-04-29T18:12:39.721Z,3.75
2023-04-29T18:15:10.604Z,4.55
2023-04-29T18:17:40.000Z,4.28
2023-04-29T18:20:10.148Z,4.30
2023-04-29T18:22:38.477Z,4.13
2023-04-29T18:25:11.149Z,4.20
2023-04-29T18:27:42.468Z,4.88
2023-04-29T18:30:12.222Z,4.20
2023-04-29T18:32:42.132Z,4.15
2023-04-29T18:35:11.737Z,4.32
2023-04-29T18:37:40.167Z,4.35
2023-04-29T18:40:10.511Z,4.10
2023-04-29T18:42:40.600Z,4.38
2023-04-29T18:45:11.057Z,4.72
2023-04-29T18:47:39.553Z,4.03
2023-04-29T18:50:09.999Z,4.15
2023-04-29T18:52:40.003Z,4.35
2023-04-29T18:55:18.926Z,4.30
2023-04-29T18:57:48.695Z,4.57
2023-04-29T19:00:17.860Z,5.10
2023-04-29T19:02:46.481Z,4.45
2023-04-29T19:05:15.010Z,5.25
2023-04-29T19:07:44.083Z,4.78
2023-04-29T19:10:25.599Z,5.20
2023-04-29T19:12:55.465Z,5.00
2023-04-29T19:15:25.477Z,5.10
2023-04-29T19:17:58.599Z,5.55
2023-04-29T19:20:27.918Z,5.50
2023-04-29T19:22:56.826Z,5.57
2023-04-29T19:25:26.072Z,7.95
2023-04-29T19:27:59.934Z,5.57
2023-04-29T19:30:28.405Z,5.07
2023-04-29T19:32:57.110Z,5.40
2023-04-29T19:35:34.219Z,5.72
2023-04-29T19:38:02.439Z,5.72
2023-04-29T19:40:31.041Z,5.88
2023-04-29T19:43:01.045Z,5.35
2023-04-29T19:45:30.205Z,5.82
2023-04-29T19:48:01.889Z,6.47
2023-04-29T19:50:34.297Z,5.78
2023-04-29T19:53:05.830Z,5.38
2023-04-29T19:55:34.995Z,5.82
2023-04-29T19:58:07.153Z,5.80
2023-04-29T20:00:36.600Z,6.20
2023-04-29T20:03:06.130Z,5.78
2023-04-29T20:05:36.442Z,6.10
2023-04-29T20:08:10.670Z,5.75
2023-04-29T20:10:42.878Z,6.70
2023-04-29T20:13:14.068Z,6.13
2023-04-29T20:15:43.064Z,6.88
2023-04-29T20:18:12.578Z,6.68
2023-04-29T20:20:43.773Z,6.32
2023-04-29T20:23:12.962Z,6.95
2023-04-29T20:25:41.882Z,6.82
2023-04-29T20:28:12.742Z,7.45
2023-04-29T20:30:43.156Z,7.80
2023-04-29T20:33:13.965Z,7.85
2023-04-29T20:35:42.801Z,8.30
2023-04-29T20:38:13.002Z,8.27
2023-04-29T20:40:43.865Z,8.05
2023-04-29T20:43:15.181Z,8.30
2023-04-29T20:45:51.469Z,7.38
2023-04-29T20:48:22.600Z,7.85
2023-04-29T20:50:55.280Z,6.63
2023-04-29T20:53:26.200Z,7.95
2023-04-29T20:55:56.770Z,8.07
2023-04-29T20:58:25.716Z,7.75
2023-04-29T21:00:57.882Z,8.18
2023-04-29T21:03:26.787Z,8.18
2023-04-29T21:05:58.715Z,8.15
2023-04-29T21:08:30.025Z,8.57
2023-04-29T21:11:00.025Z,8.77
2023-04-29T21:13:29.155Z,9.30
2023-04-29T21:16:03.960Z,9.63
2023-04-29T21:18:35.601Z,9.70
2023-04-29T21:21:09.820Z,8.95
2023-04-29T21:23:38.907Z,10.07
2023-04-29T21:26:10.214Z,10.27
2023-04-29T21:28:40.276Z,11.05
2023-04-29T21:31:19.947Z,9.95
2023-04-29T21:33:50.688Z,10.77
2023-04-29T21:36:23.506Z,10.95
2023-04-29T21:38:57.426Z,10.50
2023-04-29T21:41:32.801Z,11.57
2023-04-29T21:44:09.774Z,11.50
2023-04-29T21:46:41.146Z,11.60
2023-04-29T21:49:10.936Z,11.45
2023-04-29T21:51:39.962Z,11.75
2023-04-29T21:54:09.586Z,11.52
2023-04-29T21:56:38.418Z,11.38
2023-04-29T21:59:10.184Z,12.23
2023-04-29T22:02:00.743Z,10.77
2023-04-29T22:04:29.462Z,11.15
2023-04-29T22:06:59.624Z,11.68
2023-04-29T22:09:28.093Z,11.68
2023-04-29T22:11:58.080Z,11.73
2023-04-29T22:14:27.204Z,11.60
2023-04-29T22:17:00.052Z,11.52
2023-04-29T22:19:30.318Z,11.88
2023-04-29T22:21:58.963Z,10.60
2023-04-29T22:24:30.268Z,11.70
2023-04-29T22:27:06.773Z,11.80
2023-04-29T22:29:38.198Z,11.80
2023-04-29T22:32:08.615Z,12.73
2023-04-29T22:34:37.150Z,13.38
2023-04-29T22:37:05.489Z,13.35
2023-04-29T22:39:34.159Z,12.65
2023-04-29T22:42:02.946Z,20.52
2023-04-29T22:44:31.395Z,15.10
2023-04-29T22:46:59.981Z,14.35
2023-04-29T22:49:29.866Z,12.65
2023-04-29T22:51:58.410Z,13.43
2023-04-29T22:54:26.852Z,13.75
2023-04-29T22:56:55.151Z,13.30
2023-04-29T22:59:23.429Z,13.68
2023-04-29T23:01:52.389Z,12.88
2023-04-29T23:04:22.737Z,13.25
2023-04-29T23:06:52.897Z,12.75
2023-04-29T23:09:21.322Z,14.02
2023-04-29T23:11:51.949Z,12.82
2023-04-29T23:14:22.863Z,12.38
2023-04-29T23:16:51.378Z,13.30
2023-04-29T23:19:19.676Z,13.15
2023-04-29T23:21:47.904Z,13.45
2023-04-29T23:24:17.932Z,13.13
2023-04-29T23:26:46.336Z,13.10
2023-04-29T23:29:16.014Z,13.27
2023-04-29T23:31:48.056Z,12.82
2023-04-29T23:34:18.392Z,13.55
2023-04-29T23:36:47.241Z,12.80
2023-04-29T23:39:17.647Z,13.40
2023-04-29T23:41:46.450Z,13.60
2023-04-29T23:44:14.751Z,13.30
2023-04-29T23:46:43.349Z,14.02
2023-04-29T23:49:11.885Z,14.30
2023-04-29T23:51:40.271Z,13.95
2023-04-29T23:54:08.628Z,12.40
2023-04-29T23:56:38.642Z,13.00
2023-04-29T23:59:07.003Z,13.27
